createdAt,value
2019-02-02T00:00:43.205Z,69.07
2019-02-02T00:03:12.886Z,48.90
2019-02-02T00:05:42.200Z,47.90
2019-02-02T00:08:11.545Z,47.33
2019-02-02T00:10:41.838Z,45.83
2019-02-02T00:13:11.481Z,45.97
2019-02-02T00:15:40.782Z,43.60
2019-02-02T00:18:10.646Z,45.40
2019-02-02T00:20:40.928Z,48.53
2019-02-02T00:23:10.326Z,42.53
2019-02-02T00:25:39.635Z,43.03
2019-02-02T00:28:08.970Z,42.90
2019-02-02T00:30:38.278Z,43.63
2019-02-02T00:33:07.621Z,43.97
2019-02-02T00:35:36.937Z,41.77
2019-02-02T00:38:06.580Z,44.67
2019-02-02T00:40:35.878Z,42.77
2019-02-02T00:43:05.463Z,42.53
2019-02-02T00:45:34.773Z,39.67
2019-02-02T00:48:04.115Z,39.17
2019-02-02T00:50:33.421Z,42.40
2019-02-02T00:53:02.845Z,41.37
2019-02-02T00:55:32.142Z,40.33
2019-02-02T00:58:01.482Z,41.10
2019-02-02T01:00:30.789Z,41.33
2019-02-02T01:03:00.125Z,40.37
2019-02-02T01:05:29.433Z,40.77
2019-02-02T01:07:58.793Z,41.50
2019-02-02T01:10:39.226Z,44.03
2019-02-02T01:13:09.582Z,40.57
2019-02-02T01:15:39.096Z,42.90
2019-02-02T01:18:08.477Z,40.30
2019-02-02T01:20:37.789Z,39.33
2019-02-02T01:23:07.132Z,40.10
2019-02-02T01:25:36.442Z,42.73
2019-02-02T01:28:05.849Z,42.10
2019-02-02T01:30:35.186Z,42.27
2019-02-02T01:33:04.525Z,42.33
2019-02-02T01:35:33.842Z,40.80
2019-02-02T01:38:03.188Z,40.20
2019-02-02T01:40:32.488Z,41.00
2019-02-02T01:43:01.842Z,43.97
2019-02-02T01:45:31.147Z,43.77
2019-02-02T01:48:00.494Z,41.50
2019-02-02T01:50:29.865Z,41.87
2019-02-02T01:52:59.212Z,45.30
2019-02-02T01:55:28.522Z,43.70
2019-02-02T01:57:57.864Z,43.20
2019-02-02T02:00:34.385Z,45.30
2019-02-02T02:03:03.808Z,49.47
2019-02-02T02:05:33.120Z,44.30
2019-02-02T02:08:02.468Z,45.80
2019-02-02T02:10:31.838Z,44.50
2019-02-02T02:13:01.176Z,47.37
2019-02-02T02:15:30.486Z,48.10
2019-02-02T02:17:59.857Z,47.90
2019-02-02T02:20:29.180Z,47.37
2019-02-02T02:22:58.538Z,48.90
2019-02-02T02:25:27.846Z,50.20
2019-02-02T02:27:57.189Z,48.70
2019-02-02T02:30:26.496Z,48.07
2019-02-02T02:32:55.909Z,48.53
2019-02-02T02:35:25.221Z,51.23
2019-02-02T02:37:54.588Z,50.10
2019-02-02T02:40:24.336Z,50.57
2019-02-02T02:42:54.213Z,49.00
2019-02-02T02:45:23.556Z,49.97
2019-02-02T02:47:52.856Z,47.80
2019-02-02T02:50:22.381Z,50.80
2019-02-02T02:52:51.690Z,48.73
2019-02-02T02:55:21.044Z,49.70
2019-02-02T02:57:50.346Z,49.70
2019-02-02T03:00:27.613Z,49.73
2019-02-02T03:02:58.989Z,48.20
2019-02-02T03:05:28.412Z,51.70
2019-02-02T03:07:57.712Z,53.00
2019-02-02T03:10:27.062Z,51.00
2019-02-02T03:12:56.379Z,53.13
2019-02-02T03:15:25.721Z,52.13
2019-02-02T03:17:55.043Z,52.33
2019-02-02T03:20:24.386Z,52.63
2019-02-02T03:22:53.744Z,52.90
2019-02-02T03:25:24.880Z,53.90
2019-02-02T03:27:54.193Z,53.50
2019-02-02T03:30:23.534Z,52.77
2019-02-02T03:32:52.857Z,54.70
2019-02-02T03:35:23.519Z,52.40
2019-02-02T03:37:52.902Z,52.77
2019-02-02T03:40:23.392Z,54.37
2019-02-02T03:42:52.716Z,53.70
2019-02-02T03:45:23.900Z,52.77
2019-02-02T03:47:53.934Z,53.37
2019-02-02T03:50:23.289Z,54.50
2019-02-02T03:52:52.595Z,53.60
2019-02-02T03:55:21.944Z,55.83
2019-02-02T03:57:51.242Z,54.67
2019-02-02T04:00:21.929Z,55.07
2019-02-02T04:02:51.238Z,55.97
2019-02-02T04:05:26.191Z,57.23
2019-02-02T04:07:55.498Z,56.50
2019-02-02T04:10:24.848Z,55.80
2019-02-02T04:12:54.161Z,54.30
2019-02-02T04:15:23.520Z,56.33
2019-02-02T04:17:52.808Z,54.70
2019-02-02T04:20:23.204Z,55.70
2019-02-02T04:22:52.527Z,53.73
2019-02-02T04:25:22.405Z,54.50
2019-02-02T04:27:51.708Z,53.50
2019-02-02T04:30:26.089Z,52.90
2019-02-02T04:32:55.403Z,53.37
2019-02-02T04:35:24.748Z,53.53
2019-02-02T04:37:54.045Z,55.17
2019-02-02T04:40:23.392Z,55.50
2019-02-02T04:42:52.706Z,55.23
2019-02-02T04:45:22.056Z,52.50
2019-02-02T04:47:51.362Z,51.87
2019-02-02T04:50:21.336Z,51.50
2019-02-02T04:52:50.646Z,52.60
2019-02-02T04:55:20.158Z,51.87
2019-02-02T04:57:49.462Z,51.03
2019-02-02T05:00:23.468Z,54.03
2019-02-02T05:02:52.783Z,55.60
2019-02-02T05:05:23.178Z,53.47
2019-02-02T05:07:52.487Z,54.67
2019-02-02T05:10:23.374Z,57.17
2019-02-02T05:12:52.741Z,58.73
2019-02-02T05:15:22.093Z,60.07
2019-02-02T05:17:51.401Z,55.93
2019-02-02T05:20:21.121Z,59.43
2019-02-02T05:22:50.501Z,65.87
2019-02-02T05:25:19.849Z,65.90
2019-02-02T05:27:49.154Z,60.33
2019-02-02T05:30:23.885Z,60.03
2019-02-02T05:32:53.198Z,57.10
2019-02-02T05:35:22.532Z,56.40
2019-02-02T05:37:51.849Z,54.23
2019-02-02T05:40:22.032Z,55.40
2019-02-02T05:42:51.347Z,55.30
2019-02-02T05:45:22.911Z,56.33
2019-02-02T05:47:53.186Z,54.10
2019-02-02T05:50:23.483Z,52.73
2019-02-02T05:52:52.964Z,55.10
2019-02-02T05:55:23.167Z,56.17
2019-02-02T05:57:52.470Z,54.87
2019-02-02T06:00:39.833Z,52.07
2019-02-02T06:03:09.140Z,54.30
2019-02-02T06:05:38.501Z,56.60
2019-02-02T06:08:07.808Z,55.80
2019-02-02T06:10:37.175Z,58.63
2019-02-02T06:13:06.526Z,60.27
2019-02-02T06:15:35.854Z,70.03
2019-02-02T06:18:05.206Z,67.37
2019-02-02T06:20:34.528Z,66.53
2019-02-02T06:23:03.883Z,54.77
2019-02-02T06:25:33.190Z,53.93
2019-02-02T06:28:02.550Z,53.57
2019-02-02T06:30:31.864Z,54.13
2019-02-02T06:33:01.213Z,55.93
2019-02-02T06:35:30.541Z,52.63
2019-02-02T06:37:59.893Z,53.20
2019-02-02T06:40:29.205Z,53.33
2019-02-02T06:42:58.560Z,52.73
2019-02-02T06:45:30.013Z,53.67
2019-02-02T06:47:59.369Z,54.10
2019-02-02T06:50:28.677Z,52.43
2019-02-02T06:52:58.564Z,50.27
2019-02-02T06:55:27.872Z,48.83
2019-02-02T06:57:57.210Z,54.03
2019-02-02T07:00:27.863Z,51.33
2019-02-02T07:02:57.208Z,54.87
2019-02-02T07:05:26.523Z,53.13
2019-02-02T07:07:55.872Z,54.20
2019-02-02T07:10:27.135Z,52.30
2019-02-02T07:12:56.552Z,50.30
2019-02-02T07:15:30.262Z,48.93
2019-02-02T07:17:59.598Z,58.67
2019-02-02T07:20:28.908Z,61.27
2019-02-02T07:22:58.265Z,58.57
2019-02-02T07:25:27.574Z,64.00
2019-02-02T07:27:57.900Z,52.87
2019-02-02T07:30:29.089Z,52.70
2019-02-02T07:32:58.179Z,60.33
2019-02-02T07:35:27.484Z,61.97
2019-02-02T07:37:56.829Z,64.03
2019-02-02T07:40:26.209Z,61.83
2019-02-02T07:42:55.584Z,59.50
2019-02-02T07:45:29.629Z,54.93
2019-02-02T07:47:58.984Z,55.70
2019-02-02T07:50:28.286Z,52.20
2019-02-02T07:52:57.637Z,50.80
2019-02-02T07:55:26.944Z,52.83
2019-02-02T07:57:56.353Z,55.93
2019-02-02T08:00:40.685Z,54.70
2019-02-02T08:03:06.581Z,54.43
2019-02-02T08:05:35.885Z,50.83
2019-02-02T08:08:05.603Z,54.50
2019-02-02T08:10:34.905Z,53.83
2019-02-02T08:13:04.541Z,46.70
2019-02-02T08:15:34.089Z,44.80
2019-02-02T08:18:03.436Z,41.90
2019-02-02T08:20:32.734Z,40.70
2019-02-02T08:23:02.077Z,39.83
2019-02-02T08:25:31.380Z,39.67
2019-02-02T08:28:00.725Z,39.13
2019-02-02T08:30:35.316Z,41.20
2019-02-02T08:33:03.409Z,44.87
2019-02-02T08:35:32.713Z,43.53
2019-02-02T08:38:02.061Z,44.17
2019-02-02T08:40:31.365Z,39.70
2019-02-02T08:43:00.725Z,40.60
2019-02-02T08:45:30.030Z,39.87
2019-02-02T08:47:59.452Z,44.30
2019-02-02T08:50:34.352Z,47.80
2019-02-02T08:53:03.692Z,49.80
2019-02-02T08:55:33.287Z,49.97
2019-02-02T08:58:02.757Z,53.70
2019-02-02T09:00:32.062Z,48.10
2019-02-02T09:03:01.475Z,48.63
2019-02-02T09:05:30.857Z,52.63
2019-02-02T09:08:00.152Z,56.90
2019-02-02T09:10:29.773Z,50.20
2019-02-02T09:12:59.069Z,48.73
2019-02-02T09:15:28.417Z,42.37
2019-02-02T09:17:57.761Z,43.90
2019-02-02T09:20:27.109Z,45.10
2019-02-02T09:23:06.068Z,47.37
2019-02-02T09:25:28.362Z,48.30
2019-02-02T09:27:57.680Z,55.27
2019-02-02T09:30:29.864Z,51.27
2019-02-02T09:32:59.338Z,46.90
2019-02-02T09:35:28.689Z,46.23
2019-02-02T09:37:57.993Z,46.47
2019-02-02T09:40:27.347Z,51.07
2019-02-02T09:42:56.645Z,46.93
2019-02-02T09:45:25.997Z,44.60
2019-02-02T09:47:55.304Z,60.03
2019-02-02T09:50:26.085Z,55.53
2019-02-02T09:52:55.388Z,43.60
2019-02-02T09:55:26.373Z,38.33
2019-02-02T09:57:58.609Z,38.70
2019-02-02T10:00:30.467Z,39.77
2019-02-02T10:02:59.769Z,99.57
2019-02-02T10:05:30.056Z,67.40
2019-02-02T10:07:59.511Z,59.23
2019-02-02T10:10:30.654Z,51.53
2019-02-02T10:13:00.165Z,46.33
2019-02-02T10:15:29.513Z,46.57
2019-02-02T10:17:58.876Z,55.47
2019-02-02T10:20:30.046Z,51.60
2019-02-02T10:23:00.293Z,48.17
2019-02-02T10:25:30.968Z,43.90
2019-02-02T10:28:01.232Z,45.73
2019-02-02T10:30:33.173Z,47.13
2019-02-02T10:33:02.476Z,47.33
2019-02-02T10:35:31.825Z,55.27
2019-02-02T10:38:01.134Z,48.37
2019-02-02T10:40:30.517Z,49.10
2019-02-02T10:42:59.792Z,53.53
2019-02-02T10:45:29.130Z,64.40
2019-02-02T10:47:58.425Z,73.00
2019-02-02T10:50:27.772Z,72.47
2019-02-02T10:52:57.149Z,85.57
2019-02-02T10:55:26.497Z,92.07
2019-02-02T10:57:55.823Z,100.33
2019-02-02T11:00:30.372Z,91.60
2019-02-02T11:02:59.682Z,74.53
2019-02-02T11:05:29.066Z,43.57
2019-02-02T11:07:58.462Z,33.30
2019-02-02T11:10:29.658Z,31.90
2019-02-02T11:12:59.018Z,31.77
2019-02-02T11:15:28.432Z,30.90
2019-02-02T11:17:58.054Z,32.50
2019-02-02T11:20:29.632Z,30.27
2019-02-02T11:22:58.931Z,31.50
2019-02-02T11:25:28.420Z,33.73
2019-02-02T11:27:57.763Z,38.90
2019-02-02T11:30:27.313Z,37.60
2019-02-02T11:32:56.702Z,34.13
2019-02-02T11:35:26.066Z,27.83
2019-02-02T11:37:55.397Z,26.90
2019-02-02T11:40:30.807Z,28.00
2019-02-02T11:43:00.125Z,26.07
2019-02-02T11:45:29.470Z,33.40
2019-02-02T11:47:58.818Z,35.80
2019-02-02T11:50:28.122Z,36.93
2019-02-02T11:52:57.484Z,28.70
2019-02-02T11:55:28.121Z,35.63
2019-02-02T11:57:57.531Z,37.63
2019-02-02T12:00:29.333Z,31.93
2019-02-02T12:02:58.685Z,29.37
2019-02-02T12:05:27.992Z,29.60
2019-02-02T12:07:57.341Z,28.50
2019-02-02T12:10:31.307Z,28.10
2019-02-02T12:13:00.658Z,33.20
2019-02-02T12:15:30.030Z,32.43
2019-02-02T12:17:59.393Z,30.50
2019-02-02T12:20:29.712Z,26.47
2019-02-02T12:22:59.063Z,28.03
2019-02-02T12:25:28.364Z,28.27
2019-02-02T12:27:57.838Z,31.43
2019-02-02T12:30:31.925Z,33.83
2019-02-02T12:33:03.403Z,35.17
2019-02-02T12:35:32.188Z,37.40
2019-02-02T12:38:01.530Z,31.63
2019-02-02T12:40:30.829Z,28.57
2019-02-02T12:43:00.174Z,29.60
2019-02-02T12:45:38.346Z,31.60
2019-02-02T12:48:07.698Z,29.40
2019-02-02T12:50:37.001Z,27.60
2019-02-02T12:53:06.696Z,30.27
2019-02-02T12:55:35.993Z,32.53
2019-02-02T12:58:06.483Z,31.47
2019-02-02T13:00:35.785Z,33.13
2019-02-02T13:03:05.676Z,31.53
2019-02-02T13:05:34.977Z,32.67
2019-02-02T13:08:05.296Z,35.57
2019-02-02T13:10:35.094Z,33.37
2019-02-02T13:13:04.440Z,31.53
2019-02-02T13:15:33.742Z,30.53
2019-02-02T13:18:03.144Z,33.00
2019-02-02T13:20:32.453Z,48.43
2019-02-02T13:23:01.798Z,36.63
2019-02-02T13:25:31.100Z,32.37
2019-02-02T13:28:00.449Z,32.90
2019-02-02T13:30:32.345Z,47.83
2019-02-02T13:33:01.693Z,48.50
2019-02-02T13:35:33.337Z,43.87
2019-02-02T13:38:02.681Z,45.37
2019-02-02T13:40:31.996Z,42.23
2019-02-02T13:43:01.348Z,62.97
2019-02-02T13:45:31.721Z,54.90
2019-02-02T13:48:01.056Z,50.27
2019-02-02T13:50:30.356Z,49.00
2019-02-02T13:52:59.701Z,51.80
2019-02-02T13:55:28.996Z,51.07
2019-02-02T13:57:58.338Z,52.73
2019-02-02T14:00:29.781Z,53.33
2019-02-02T14:03:03.673Z,38.37
2019-02-02T14:05:30.063Z,36.03
2019-02-02T14:08:00.238Z,42.47
2019-02-02T14:10:32.302Z,43.67
2019-02-02T14:13:01.674Z,45.73
2019-02-02T14:15:30.967Z,47.50
2019-02-02T14:18:00.309Z,48.30
2019-02-02T14:20:30.720Z,47.80
2019-02-02T14:23:00.064Z,49.03
2019-02-02T14:25:29.365Z,53.70
2019-02-02T14:27:58.721Z,70.83
2019-02-02T14:30:28.030Z,66.23
2019-02-02T14:32:57.527Z,81.33
2019-02-02T14:35:27.871Z,81.60
2019-02-02T14:37:57.234Z,77.20
2019-02-02T14:40:26.541Z,73.70
2019-02-02T14:42:55.844Z,69.73
2019-02-02T14:45:27.566Z,76.60
2019-02-02T14:47:56.790Z,75.63
2019-02-02T14:50:26.132Z,42.27
2019-02-02T14:52:55.441Z,40.67
2019-02-02T14:55:27.389Z,52.57
2019-02-02T14:57:56.719Z,38.17
2019-02-02T15:00:27.699Z,52.73
2019-02-02T15:02:57.257Z,53.27
2019-02-02T15:05:26.584Z,51.53
2019-02-02T15:07:55.888Z,56.33
2019-02-02T15:10:25.245Z,56.03
2019-02-02T15:12:54.673Z,52.10
2019-02-02T15:15:23.997Z,52.60
2019-02-02T15:17:53.311Z,54.77
2019-02-02T15:20:31.349Z,45.60
2019-02-02T15:23:00.640Z,51.93
2019-02-02T15:25:29.982Z,56.63
2019-02-02T15:27:59.282Z,54.00
2019-02-02T15:30:34.184Z,56.80
2019-02-02T15:33:03.742Z,54.70
2019-02-02T15:35:33.117Z,59.23
2019-02-02T15:38:02.395Z,59.40
2019-02-02T15:40:32.419Z,57.97
2019-02-02T15:43:01.724Z,54.93
2019-02-02T15:45:32.129Z,51.97
2019-02-02T15:48:01.441Z,52.90
2019-02-02T15:50:30.847Z,56.00
2019-02-02T15:53:00.145Z,57.03
2019-02-02T15:55:29.590Z,65.10
2019-02-02T15:57:58.898Z,65.67
2019-02-02T16:00:30.178Z,59.33
2019-02-02T16:02:59.486Z,57.00
2019-02-02T16:05:29.307Z,56.70
2019-02-02T16:08:00.542Z,55.87
2019-02-02T16:10:32.561Z,56.63
2019-02-02T16:13:01.874Z,59.67
2019-02-02T16:15:34.123Z,61.27
2019-02-02T16:18:02.184Z,60.60
2019-02-02T16:20:34.585Z,63.70
2019-02-02T16:23:04.149Z,65.23
2019-02-02T16:25:33.514Z,65.03
2019-02-02T16:28:02.830Z,64.10
2019-02-02T16:30:32.180Z,62.80
2019-02-02T16:33:01.491Z,61.67
2019-02-02T16:35:30.849Z,58.80
2019-02-02T16:38:00.160Z,61.60
2019-02-02T16:40:30.577Z,60.00
2019-02-02T16:42:59.889Z,59.80
2019-02-02T16:45:30.986Z,63.80
2019-02-02T16:48:00.288Z,61.83
2019-02-02T16:50:29.717Z,59.43
2019-02-02T16:52:59.240Z,61.17
2019-02-02T16:55:28.621Z,54.80
2019-02-02T16:57:57.873Z,48.83
2019-02-02T17:00:32.477Z,51.47
2019-02-02T17:03:01.789Z,50.30
2019-02-02T17:05:31.196Z,53.23
2019-02-02T17:08:00.586Z,59.00
2019-02-02T17:10:32.530Z,59.17
2019-02-02T17:13:01.841Z,57.90
2019-02-02T17:15:31.223Z,56.97
2019-02-02T17:18:00.514Z,56.83
2019-02-02T17:20:38.808Z,58.87
2019-02-02T17:23:08.116Z,56.33
2019-02-02T17:25:37.790Z,51.53
2019-02-02T17:28:07.365Z,53.40
2019-02-02T17:30:36.717Z,60.20
2019-02-02T17:33:08.405Z,55.67
2019-02-02T17:35:38.121Z,57.10
2019-02-02T17:38:07.825Z,58.87
2019-02-02T17:40:37.165Z,54.17
2019-02-02T17:43:06.516Z,59.87
2019-02-02T17:45:35.864Z,58.87
2019-02-02T17:48:05.764Z,53.20
2019-02-02T17:50:35.074Z,58.33
2019-02-02T17:53:04.480Z,66.40
2019-02-02T17:55:33.742Z,66.93
2019-02-02T17:58:03.097Z,75.80
2019-02-02T18:00:36.481Z,89.87
2019-02-02T18:03:05.934Z,109.57
2019-02-02T18:05:35.250Z,103.63
2019-02-02T18:08:05.147Z,204.07
2019-02-02T18:10:34.530Z,158.43
2019-02-02T18:13:03.889Z,173.70
2019-02-02T18:15:33.218Z,168.07
2019-02-02T18:18:02.713Z,163.90
2019-02-02T18:20:32.038Z,192.20
2019-02-02T18:23:01.394Z,184.50
2019-02-02T18:25:30.700Z,190.83
2019-02-02T18:28:00.061Z,119.83
2019-02-02T18:30:29.367Z,126.10
2019-02-02T18:32:58.721Z,132.97
2019-02-02T18:35:28.033Z,141.30
2019-02-02T18:37:57.461Z,136.33
2019-02-02T18:40:26.774Z,142.83
2019-02-02T18:42:56.125Z,157.27
2019-02-02T18:45:27.634Z,162.57
2019-02-02T18:47:56.992Z,157.30
2019-02-02T18:50:26.798Z,152.50
2019-02-02T18:52:58.854Z,105.03
2019-02-02T18:55:31.305Z,93.43
2019-02-02T18:58:00.666Z,131.20
2019-02-02T19:00:29.973Z,115.37
2019-02-02T19:02:59.329Z,85.40
2019-02-02T19:05:29.163Z,87.33
2019-02-02T19:07:59.756Z,80.90
2019-02-02T19:10:32.327Z,80.37
2019-02-02T19:13:01.677Z,77.27
2019-02-02T19:15:30.978Z,72.37
2019-02-02T19:18:03.324Z,78.23
2019-02-02T19:20:31.373Z,71.93
2019-02-02T19:23:00.792Z,72.47
2019-02-02T19:25:30.213Z,68.13
2019-02-02T19:27:59.565Z,70.63
2019-02-02T19:30:31.805Z,67.47
2019-02-02T19:33:01.113Z,69.70
2019-02-02T19:35:30.461Z,69.27
2019-02-02T19:37:59.765Z,69.33
2019-02-02T19:40:29.109Z,69.40
2019-02-02T19:42:58.540Z,72.87
2019-02-02T19:45:28.594Z,73.07
2019-02-02T19:47:57.909Z,69.57
2019-02-02T19:50:30.898Z,75.67
2019-02-02T19:53:00.270Z,73.73
2019-02-02T19:55:29.684Z,70.07
2019-02-02T19:57:58.989Z,70.73
2019-02-02T20:00:30.938Z,72.23
2019-02-02T20:03:00.546Z,69.90
2019-02-02T20:05:30.078Z,74.13
2019-02-02T20:07:59.387Z,69.23
2019-02-02T20:10:28.845Z,69.43
2019-02-02T20:12:58.170Z,67.20
2019-02-02T20:15:27.958Z,69.03
2019-02-02T20:18:08.943Z,64.87
2019-02-02T20:20:29.013Z,67.33
2019-02-02T20:22:58.392Z,65.40
2019-02-02T20:25:27.756Z,61.93
2019-02-02T20:27:57.066Z,59.93
2019-02-02T20:30:29.119Z,57.83
2019-02-02T20:32:58.416Z,57.90
2019-02-02T20:35:39.698Z,56.73
2019-02-02T20:37:59.949Z,55.80
2019-02-02T20:40:29.301Z,54.97
2019-02-02T20:42:58.613Z,51.03
2019-02-02T20:45:36.861Z,51.13
2019-02-02T20:48:07.291Z,51.83
2019-02-02T20:50:38.274Z,54.00
2019-02-02T20:53:09.222Z,54.10
2019-02-02T20:55:41.615Z,55.83
2019-02-02T20:58:10.919Z,57.47
2019-02-02T21:00:40.807Z,60.93
2019-02-02T21:03:13.505Z,58.13
2019-02-02T21:05:52.004Z,62.13
2019-02-02T21:08:15.048Z,62.87
2019-02-02T21:10:44.686Z,62.97
2019-02-02T21:13:14.121Z,65.80
2019-02-02T21:15:43.681Z,65.97
2019-02-02T21:18:13.949Z,66.97
2019-02-02T21:20:43.302Z,68.83
2019-02-02T21:23:12.684Z,66.03
2019-02-02T21:25:42.109Z,63.13
2019-02-02T21:28:11.633Z,64.80
2019-02-02T21:30:41.061Z,62.57
2019-02-02T21:33:10.378Z,62.37
2019-02-02T21:35:42.291Z,63.33
2019-02-02T21:38:11.765Z,64.13
2019-02-02T21:40:41.318Z,68.23
2019-02-02T21:43:10.630Z,69.73
2019-02-02T21:45:40.098Z,63.00
2019-02-02T21:48:09.629Z,65.43
2019-02-02T21:50:39.029Z,65.30
2019-02-02T21:53:08.343Z,60.57
2019-02-02T21:55:37.708Z,53.87
2019-02-02T21:58:07.262Z,58.47
2019-02-02T22:00:38.700Z,57.80
2019-02-02T22:03:08.144Z,56.63
2019-02-02T22:05:37.449Z,56.73
2019-02-02T22:08:07.170Z,57.80
2019-02-02T22:10:36.484Z,58.43
2019-02-02T22:13:05.981Z,53.10
2019-02-02T22:15:36.912Z,55.07
2019-02-02T22:18:06.277Z,56.77
2019-02-02T22:20:35.585Z,56.17
2019-02-02T22:23:04.941Z,56.93
2019-02-02T22:25:34.331Z,56.47
2019-02-02T22:28:03.688Z,57.20
2019-02-02T22:30:36.429Z,62.07
2019-02-02T22:33:06.594Z,61.13
2019-02-02T22:35:35.897Z,59.63
2019-02-02T22:38:05.258Z,64.67
2019-02-02T22:40:34.710Z,67.07
2019-02-02T22:43:04.096Z,59.77
2019-02-02T22:45:33.477Z,62.80
2019-02-02T22:48:02.835Z,63.20
2019-02-02T22:50:32.414Z,55.53
2019-02-02T22:53:01.842Z,60.50
2019-02-02T22:55:31.129Z,55.83
2019-02-02T22:58:00.510Z,48.37
2019-02-02T23:00:43.349Z,56.93
2019-02-02T23:03:19.368Z,55.07
2019-02-02T23:06:02.635Z,52.67
2019-02-02T23:08:47.313Z,45.50
2019-02-02T23:11:19.889Z,48.93
2019-02-02T23:14:07.340Z,51.47
2019-02-02T23:16:36.844Z,42.67
2019-02-02T23:19:06.565Z,38.77
2019-02-02T23:21:35.933Z,45.97
2019-02-02T23:24:05.281Z,46.90
2019-02-02T23:26:34.602Z,42.07
2019-02-02T23:29:03.946Z,45.03
2019-02-02T23:31:33.253Z,48.97
2019-02-02T23:34:02.623Z,41.80
2019-02-02T23:36:31.937Z,47.83
2019-02-02T23:39:01.317Z,45.93
2019-02-02T23:41:32.248Z,49.83
2019-02-02T23:44:01.615Z,46.83
2019-02-02T23:46:30.926Z,44.23
2019-02-02T23:49:00.346Z,46.17
2019-02-02T23:51:29.697Z,47.97
2019-02-02T23:53:59.001Z,48.13
2019-02-02T23:56:28.549Z,49.13
2019-02-02T23:58:57.863Z,48.87
